createdAt,value
2023-02-17T00:00:56.667Z,11.88
2023-02-17T00:03:23.781Z,11.85
2023-02-17T00:05:51.128Z,11.85
2023-02-17T00:08:17.668Z,11.84
2023-02-17T00:10:44.189Z,11.84
2023-02-17T00:13:10.525Z,11.84
2023-02-17T00:15:40.402Z,11.86
2023-02-17T00:18:06.777Z,11.88
2023-02-17T00:20:33.074Z,11.87
2023-02-17T00:22:59.432Z,11.88
2023-02-17T00:25:25.850Z,11.89
2023-02-17T00:27:52.176Z,11.89
2023-02-17T00:30:18.791Z,11.90
2023-02-17T00:32:45.352Z,11.90
2023-02-17T00:35:11.666Z,11.91
2023-02-17T00:37:38.436Z,11.93
2023-02-17T00:40:05.552Z,11.92
2023-02-17T00:42:31.897Z,11.92
2023-02-17T00:44:58.239Z,11.94
2023-02-17T00:47:24.644Z,11.95
2023-02-17T00:49:50.981Z,11.96
2023-02-17T00:52:17.303Z,11.97
2023-02-17T00:54:43.667Z,11.98
2023-02-17T00:57:09.975Z,11.99
2023-02-17T00:59:36.314Z,12.01
2023-02-17T01:02:02.754Z,12.01
2023-02-17T01:04:29.226Z,12.03
2023-02-17T01:06:55.637Z,12.04
2023-02-17T01:09:22.035Z,12.05
2023-02-17T01:11:48.430Z,12.06
2023-02-17T01:14:15.063Z,12.07
2023-02-17T01:16:46.267Z,12.11
2023-02-17T01:19:15.643Z,12.11
2023-02-17T01:21:42.399Z,12.13
2023-02-17T01:24:09.688Z,12.14
2023-02-17T01:26:36.828Z,12.15
2023-02-17T01:29:05.361Z,12.17
2023-02-17T01:31:32.193Z,12.17
2023-02-17T01:34:01.439Z,12.19
2023-02-17T01:36:28.511Z,12.20
2023-02-17T01:38:55.065Z,12.21
2023-02-17T01:41:26.547Z,12.23
2023-02-17T01:44:12.898Z,12.25
2023-02-17T01:46:40.555Z,12.28
2023-02-17T01:49:17.354Z,12.29
2023-02-17T01:51:47.584Z,12.28
2023-02-17T01:54:22.627Z,12.28
2023-02-17T01:56:51.473Z,12.29
2023-02-17T01:59:20.932Z,12.28
2023-02-17T02:01:49.506Z,12.28
2023-02-17T02:04:18.917Z,12.28
2023-02-17T02:06:45.907Z,12.28
2023-02-17T02:09:22.641Z,12.30
2023-02-17T02:11:50.850Z,12.28
2023-02-17T02:14:19.909Z,12.30
2023-02-17T02:17:14.218Z,12.32
2023-02-17T02:20:08.653Z,12.33
2023-02-17T02:23:07.058Z,12.34
2023-02-17T02:26:10.721Z,12.36
2023-02-17T02:28:58.527Z,12.37
2023-02-17T02:31:37.592Z,12.39
2023-02-17T02:34:09.709Z,12.39
2023-02-17T02:36:43.604Z,12.40
2023-02-17T02:39:13.650Z,12.41
2023-02-17T02:41:45.612Z,12.43
2023-02-17T02:44:14.941Z,12.43
2023-02-17T02:46:41.333Z,12.44
2023-02-17T02:49:08.533Z,12.44
2023-02-17T02:52:03.883Z,12.47
2023-02-17T02:55:07.610Z,12.47
2023-02-17T02:58:02.739Z,12.48
2023-02-17T03:01:00.812Z,12.48
2023-02-17T03:03:45.602Z,12.48
2023-02-17T03:06:16.723Z,12.48
2023-02-17T03:08:52.305Z,12.48
2023-02-17T03:11:32.248Z,12.47
2023-02-17T03:14:10.735Z,12.47
2023-02-17T03:16:38.874Z,12.46
2023-02-17T03:19:06.801Z,12.46
2023-02-17T03:21:43.500Z,12.47
2023-02-17T03:24:10.472Z,12.47
2023-02-17T03:26:36.832Z,12.46
2023-02-17T03:29:03.691Z,12.47
2023-02-17T03:31:30.998Z,12.48
2023-02-17T03:33:58.040Z,12.49
2023-02-17T03:36:24.489Z,12.51
2023-02-17T03:38:51.243Z,12.52
2023-02-17T03:41:17.790Z,12.54
2023-02-17T03:43:44.163Z,12.55
2023-02-17T03:46:12.742Z,12.56
2023-02-17T03:48:39.485Z,12.57
2023-02-17T03:51:21.128Z,12.60
2023-02-17T03:53:48.453Z,12.61
2023-02-17T03:56:16.082Z,12.60
2023-02-17T03:58:43.216Z,12.61
2023-02-17T04:01:11.372Z,12.62
2023-02-17T04:03:38.834Z,12.64
2023-02-17T04:06:06.204Z,12.64
2023-02-17T04:08:33.136Z,12.65
2023-02-17T04:11:01.899Z,12.67
2023-02-17T04:13:28.980Z,12.67
2023-02-17T04:15:55.701Z,12.68
2023-02-17T04:18:23.024Z,12.68
2023-02-17T04:20:51.049Z,12.70
2023-02-17T04:23:17.968Z,12.70
2023-02-17T04:25:45.025Z,12.69
2023-02-17T04:28:12.888Z,12.71
2023-02-17T04:30:39.645Z,12.71
2023-02-17T04:33:06.151Z,12.73
2023-02-17T04:35:32.525Z,12.73
2023-02-17T04:37:58.993Z,12.76
2023-02-17T04:40:25.351Z,12.76
2023-02-17T04:42:51.707Z,12.77
2023-02-17T04:45:18.190Z,12.78
2023-02-17T04:47:44.490Z,12.77
2023-02-17T04:50:11.753Z,12.78
2023-02-17T04:52:38.518Z,12.78
2023-02-17T04:55:06.039Z,12.79
2023-02-17T04:57:32.743Z,12.79
2023-02-17T04:59:59.064Z,12.79
2023-02-17T05:02:28.534Z,12.80
2023-02-17T05:04:54.995Z,12.81
2023-02-17T05:07:21.837Z,12.80
2023-02-17T05:09:48.279Z,12.80
2023-02-17T05:12:14.639Z,12.80
2023-02-17T05:14:41.107Z,12.81
2023-02-17T05:17:07.528Z,12.81
2023-02-17T05:19:34.307Z,12.81
2023-02-17T05:22:00.626Z,12.81
2023-02-17T05:24:26.961Z,12.82
2023-02-17T05:26:53.387Z,12.82
2023-02-17T05:29:19.833Z,12.82
2023-02-17T05:31:46.321Z,12.82
2023-02-17T05:34:13.086Z,12.82
2023-02-17T05:36:39.434Z,12.83
2023-02-17T05:39:06.046Z,12.82
2023-02-17T05:41:32.495Z,12.81
2023-02-17T05:43:58.836Z,12.81
2023-02-17T05:46:25.194Z,12.82
2023-02-17T05:48:51.581Z,12.82
2023-02-17T05:51:18.041Z,12.83
2023-02-17T05:53:44.774Z,12.82
2023-02-17T05:56:11.302Z,12.82
2023-02-17T05:58:37.867Z,12.82
2023-02-17T06:01:08.993Z,12.83
2023-02-17T06:03:35.383Z,12.81
2023-02-17T06:06:01.830Z,12.81
2023-02-17T06:08:28.286Z,12.81
2023-02-17T06:10:54.740Z,12.82
2023-02-17T06:13:21.589Z,12.81
2023-02-17T06:15:48.253Z,12.81
2023-02-17T06:18:14.802Z,12.82
2023-02-17T06:20:41.281Z,12.82
2023-02-17T06:23:07.673Z,12.81
2023-02-17T06:25:34.176Z,12.82
2023-02-17T06:28:00.606Z,12.83
2023-02-17T06:30:27.034Z,12.82
2023-02-17T06:32:53.459Z,12.83
2023-02-17T06:35:19.839Z,12.84
2023-02-17T06:37:46.327Z,12.85
2023-02-17T06:40:13.118Z,12.85
2023-02-17T06:42:39.469Z,12.86
2023-02-17T06:45:06.486Z,12.86
2023-02-17T06:47:33.996Z,12.87
2023-02-17T06:50:00.420Z,12.87
2023-02-17T06:52:27.172Z,12.88
2023-02-17T06:54:53.645Z,12.87
2023-02-17T06:57:20.137Z,12.88
2023-02-17T06:59:46.602Z,12.88
2023-02-17T07:02:14.293Z,12.89
2023-02-17T07:04:41.980Z,12.88
2023-02-17T07:07:08.998Z,12.88
2023-02-17T07:09:35.490Z,12.88
2023-02-17T07:12:05.531Z,12.90
2023-02-17T07:14:33.878Z,12.89
2023-02-17T07:17:00.943Z,12.89
2023-02-17T07:19:27.277Z,12.88
2023-02-17T07:21:53.900Z,12.89
2023-02-17T07:24:20.334Z,12.88
2023-02-17T07:26:46.771Z,12.88
2023-02-17T07:29:13.339Z,12.89
2023-02-17T07:31:39.784Z,12.88
2023-02-17T07:34:06.384Z,12.88
2023-02-17T07:36:32.922Z,12.88
2023-02-17T07:38:59.578Z,12.88
2023-02-17T07:41:28.599Z,12.89
2023-02-17T07:43:56.540Z,12.90
2023-02-17T07:46:24.096Z,12.90
2023-02-17T07:48:50.522Z,12.91
2023-02-17T07:51:19.956Z,12.90
2023-02-17T07:53:47.067Z,12.89
2023-02-17T07:56:15.263Z,12.88
2023-02-17T07:58:43.223Z,12.87
2023-02-17T08:01:13.134Z,12.87
2023-02-17T08:03:40.169Z,12.86
2023-02-17T08:06:11.827Z,12.88
2023-02-17T08:09:06.668Z,12.87
2023-02-17T08:11:51.501Z,12.86
2023-02-17T08:14:20.002Z,12.87
2023-02-17T08:16:46.538Z,12.89
2023-02-17T08:19:13.071Z,12.90
2023-02-17T08:21:39.512Z,12.91
2023-02-17T08:24:06.337Z,12.93
2023-02-17T08:26:32.809Z,12.94
2023-02-17T08:28:59.234Z,12.96
2023-02-17T08:31:29.520Z,13.00
2023-02-17T08:33:57.094Z,12.99
2023-02-17T08:36:24.679Z,13.02
2023-02-17T08:38:54.275Z,13.04
2023-02-17T08:41:24.679Z,13.06
2023-02-17T08:43:52.274Z,13.06
2023-02-17T08:46:19.662Z,13.08
2023-02-17T08:48:46.665Z,13.09
2023-02-17T08:51:15.216Z,13.10
2023-02-17T08:53:42.320Z,13.11
2023-02-17T08:56:09.180Z,13.13
2023-02-17T08:58:36.315Z,13.13
2023-02-17T09:01:03.819Z,13.12
2023-02-17T09:03:30.600Z,13.13
2023-02-17T09:05:57.679Z,13.15
2023-02-17T09:08:25.122Z,13.14
2023-02-17T09:10:51.924Z,13.16
2023-02-17T09:13:19.043Z,13.18
2023-02-17T09:15:46.034Z,13.16
2023-02-17T09:18:12.570Z,13.18
2023-02-17T09:20:39.532Z,13.20
2023-02-17T09:23:07.008Z,13.19
2023-02-17T09:25:33.490Z,13.22
2023-02-17T09:28:00.058Z,13.22
2023-02-17T09:30:26.733Z,13.24
2023-02-17T09:32:53.300Z,13.25
2023-02-17T09:35:19.976Z,13.27
2023-02-17T09:37:46.428Z,13.28
2023-02-17T09:40:21.025Z,13.32
2023-02-17T09:42:47.872Z,13.32
2023-02-17T09:45:21.619Z,13.35
2023-02-17T09:47:52.735Z,13.38
2023-02-17T09:50:23.493Z,13.40
2023-02-17T09:52:54.997Z,13.41
2023-02-17T09:55:36.061Z,13.46
2023-02-17T09:58:16.705Z,13.49
2023-02-17T10:00:47.041Z,13.51
2023-02-17T10:03:24.758Z,13.55
2023-02-17T10:06:26.561Z,13.59
2023-02-17T10:09:17.456Z,13.63
2023-02-17T10:12:02.500Z,13.66
2023-02-17T10:15:04.257Z,13.71
2023-02-17T10:18:15.734Z,13.74
2023-02-17T10:20:51.767Z,13.78
2023-02-17T10:23:27.012Z,13.81
2023-02-17T10:26:14.551Z,13.85
2023-02-17T10:28:51.043Z,13.89
2023-02-17T10:31:45.523Z,13.94
2023-02-17T10:34:35.380Z,13.97
2023-02-17T10:37:31.056Z,14.02
2023-02-17T10:39:58.640Z,14.06
2023-02-17T10:42:27.217Z,14.11
2023-02-17T10:45:00.351Z,14.17
2023-02-17T10:47:26.941Z,14.20
2023-02-17T10:49:56.148Z,14.25
2023-02-17T10:52:27.806Z,14.28
2023-02-17T10:55:11.305Z,14.32
2023-02-17T10:57:52.926Z,14.37
2023-02-17T11:00:19.642Z,14.41
2023-02-17T11:02:48.853Z,14.45
2023-02-17T11:05:33.218Z,14.49
2023-02-17T11:08:23.602Z,14.53
2023-02-17T11:11:16.167Z,14.57
2023-02-17T11:14:11.893Z,14.60
2023-02-17T11:16:42.060Z,14.60
2023-02-17T11:19:24.394Z,14.62
2023-02-17T11:21:55.877Z,14.62
2023-02-17T11:24:22.904Z,14.64
2023-02-17T11:26:57.493Z,14.67
2023-02-17T11:29:24.390Z,14.67
2023-02-17T11:32:08.852Z,14.71
2023-02-17T11:34:40.821Z,14.75
2023-02-17T11:37:13.297Z,14.77
2023-02-17T11:39:45.865Z,14.79
2023-02-17T11:42:17.157Z,14.83
2023-02-17T11:44:43.534Z,14.82
2023-02-17T11:47:29.031Z,14.84
2023-02-17T11:50:14.294Z,14.83
2023-02-17T11:53:22.309Z,14.85
2023-02-17T11:55:56.544Z,14.83
2023-02-17T11:58:41.401Z,14.82
2023-02-17T12:01:29.653Z,14.83
2023-02-17T12:04:15.412Z,14.81
2023-02-17T12:06:41.769Z,14.80
2023-02-17T12:09:17.203Z,14.80
2023-02-17T12:12:28.605Z,14.82
2023-02-17T12:15:13.698Z,14.81
2023-02-17T12:18:01.897Z,14.82
2023-02-17T12:20:45.692Z,14.82
2023-02-17T12:23:19.065Z,14.82
2023-02-17T12:25:57.047Z,14.81
2023-02-17T12:28:41.808Z,14.80
2023-02-17T12:31:24.710Z,14.78
2023-02-17T12:34:00.804Z,14.76
2023-02-17T12:36:34.571Z,14.75
2023-02-17T12:39:11.549Z,14.73
2023-02-17T12:41:53.333Z,14.71
2023-02-17T12:44:26.232Z,14.71
2023-02-17T12:46:57.360Z,14.71
2023-02-17T12:49:32.168Z,14.71
2023-02-17T12:52:13.975Z,14.71
2023-02-17T12:54:56.877Z,14.69
2023-02-17T12:57:47.278Z,14.69
2023-02-17T13:00:34.312Z,14.68
2023-02-17T13:03:03.283Z,14.67
2023-02-17T13:05:40.886Z,14.66
2023-02-17T13:08:21.314Z,14.66
2023-02-17T13:10:47.893Z,14.66
2023-02-17T13:13:28.035Z,14.67
2023-02-17T13:16:11.847Z,14.67
2023-02-17T13:18:40.918Z,14.66
2023-02-17T13:21:27.668Z,14.63
2023-02-17T13:23:59.029Z,14.61
2023-02-17T13:26:39.367Z,14.56
2023-02-17T13:29:08.792Z,14.52
2023-02-17T13:31:55.824Z,14.45
2023-02-17T13:34:33.785Z,14.38
2023-02-17T13:37:03.581Z,14.31
2023-02-17T13:39:32.709Z,14.24
2023-02-17T13:42:01.227Z,14.19
2023-02-17T13:44:40.045Z,14.14
2023-02-17T13:47:14.309Z,14.10
2023-02-17T13:49:41.038Z,14.02
2023-02-17T13:52:10.645Z,13.99
2023-02-17T13:54:37.131Z,13.95
2023-02-17T13:57:03.748Z,13.92
2023-02-17T13:59:30.292Z,13.90
2023-02-17T14:01:56.651Z,13.89
2023-02-17T14:04:28.151Z,13.85
2023-02-17T14:06:58.501Z,13.85
2023-02-17T14:09:30.954Z,13.83
2023-02-17T14:11:59.002Z,13.80
2023-02-17T14:14:31.749Z,13.78
2023-02-17T14:17:04.822Z,13.79
2023-02-17T14:19:45.792Z,13.79
2023-02-17T14:22:28.543Z,13.79
2023-02-17T14:25:06.374Z,13.80
2023-02-17T14:27:53.001Z,13.82
2023-02-17T14:30:39.728Z,13.84
2023-02-17T14:33:18.131Z,13.86
2023-02-17T14:35:50.393Z,13.90
2023-02-17T14:38:22.068Z,13.92
2023-02-17T14:40:49.403Z,13.92
2023-02-17T14:43:16.059Z,13.94
2023-02-17T14:45:42.415Z,13.94
2023-02-17T14:48:08.928Z,13.97
2023-02-17T14:50:42.262Z,13.97
2023-02-17T14:53:13.031Z,14.01
2023-02-17T14:55:53.812Z,14.03
2023-02-17T14:58:23.428Z,14.02
2023-02-17T15:00:51.592Z,14.02
2023-02-17T15:03:18.546Z,14.01
2023-02-17T15:05:45.373Z,14.01
2023-02-17T15:08:18.067Z,14.02
2023-02-17T15:10:45.122Z,14.01
2023-02-17T15:13:17.429Z,14.04
2023-02-17T15:15:47.806Z,14.03
2023-02-17T15:18:16.646Z,14.04
2023-02-17T15:20:45.573Z,14.02
2023-02-17T15:23:17.758Z,14.03
2023-02-17T15:25:45.201Z,14.02
2023-02-17T15:28:17.977Z,14.02
2023-02-17T15:30:51.327Z,14.01
2023-02-17T15:33:18.552Z,13.99
2023-02-17T15:35:46.078Z,14.00
2023-02-17T15:38:13.771Z,13.99
2023-02-17T15:40:41.625Z,14.01
2023-02-17T15:43:14.933Z,14.01
2023-02-17T15:45:41.352Z,14.01
2023-02-17T15:48:14.228Z,14.02
2023-02-17T15:50:40.650Z,14.01
2023-02-17T15:53:07.130Z,14.00
2023-02-17T15:55:34.661Z,14.00
2023-02-17T15:58:04.484Z,14.01
2023-02-17T16:00:36.064Z,14.02
2023-02-17T16:03:02.865Z,14.00
2023-02-17T16:05:30.433Z,13.99
2023-02-17T16:07:57.167Z,13.99
2023-02-17T16:10:29.144Z,14.00
2023-02-17T16:12:58.108Z,14.01
2023-02-17T16:15:26.023Z,14.02
2023-02-17T16:17:52.519Z,14.03
2023-02-17T16:20:26.629Z,14.05
2023-02-17T16:22:53.373Z,14.05
2023-02-17T16:25:20.682Z,14.05
2023-02-17T16:27:49.411Z,14.05
2023-02-17T16:30:31.381Z,14.07
2023-02-17T16:32:58.075Z,14.07
2023-02-17T16:35:27.060Z,14.09
2023-02-17T16:38:05.269Z,14.09
2023-02-17T16:40:34.868Z,14.08
2023-02-17T16:43:01.304Z,14.07
2023-02-17T16:45:30.384Z,14.07
2023-02-17T16:47:59.897Z,14.08
2023-02-17T16:50:34.929Z,14.07
2023-02-17T16:53:04.941Z,14.08
2023-02-17T16:55:34.671Z,14.08
2023-02-17T16:58:01.617Z,14.08
2023-02-17T17:00:31.532Z,14.09
2023-02-17T17:02:58.768Z,14.09
2023-02-17T17:05:28.278Z,14.11
2023-02-17T17:07:54.913Z,14.11
2023-02-17T17:10:25.511Z,14.12
2023-02-17T17:12:52.197Z,14.12
2023-02-17T17:15:19.222Z,14.11
2023-02-17T17:17:55.083Z,14.12
2023-02-17T17:20:27.964Z,14.12
2023-02-17T17:22:54.505Z,14.12
2023-02-17T17:25:20.949Z,14.12
2023-02-17T17:27:47.460Z,14.11
2023-02-17T17:30:17.722Z,14.12
2023-02-17T17:32:45.661Z,14.11
2023-02-17T17:35:12.660Z,14.11
2023-02-17T17:37:39.690Z,14.11
2023-02-17T17:40:07.717Z,14.12
2023-02-17T17:42:37.474Z,14.14
2023-02-17T17:45:04.062Z,14.13
2023-02-17T17:47:31.263Z,14.14
2023-02-17T17:49:57.787Z,14.15
2023-02-17T17:52:24.349Z,14.14
2023-02-17T17:54:50.779Z,14.13
2023-02-17T17:57:17.154Z,14.12
2023-02-17T17:59:43.513Z,14.11
2023-02-17T18:02:09.883Z,14.09
2023-02-17T18:04:36.278Z,14.04
2023-02-17T18:07:03.347Z,13.98
2023-02-17T18:09:32.710Z,13.88
2023-02-17T18:12:02.792Z,13.72
2023-02-17T18:14:29.491Z,13.54
2023-02-17T18:16:57.446Z,13.37
2023-02-17T18:19:23.892Z,13.22
2023-02-17T18:21:50.239Z,13.06
2023-02-17T18:24:16.580Z,12.95
2023-02-17T18:26:42.886Z,12.84
2023-02-17T18:29:09.218Z,12.73
2023-02-17T18:31:35.907Z,12.64
2023-02-17T18:34:02.336Z,12.59
2023-02-17T18:36:29.129Z,12.53
2023-02-17T18:38:55.568Z,12.48
2023-02-17T18:41:27.949Z,12.45
2023-02-17T18:43:55.445Z,12.42
2023-02-17T18:46:22.106Z,12.40
2023-02-17T18:48:48.586Z,12.39
2023-02-17T18:51:17.409Z,12.37
2023-02-17T18:53:43.717Z,12.36
2023-02-17T18:56:12.690Z,12.36
2023-02-17T18:58:39.459Z,12.36
2023-02-17T19:01:06.358Z,12.35
2023-02-17T19:03:32.788Z,12.36
2023-02-17T19:05:59.109Z,12.37
2023-02-17T19:08:25.879Z,12.38
2023-02-17T19:10:52.238Z,12.39
2023-02-17T19:13:18.548Z,12.40
2023-02-17T19:15:44.960Z,12.40
2023-02-17T19:18:11.392Z,12.40
2023-02-17T19:20:37.782Z,12.40
2023-02-17T19:23:04.117Z,12.39
2023-02-17T19:25:30.489Z,12.38
2023-02-17T19:27:56.884Z,12.35
2023-02-17T19:30:23.320Z,12.33
2023-02-17T19:32:49.688Z,12.31
2023-02-17T19:35:16.088Z,12.28
2023-02-17T19:37:42.429Z,12.25
2023-02-17T19:40:09.134Z,12.22
2023-02-17T19:42:36.449Z,12.21
2023-02-17T19:45:02.867Z,12.18
2023-02-17T19:47:30.916Z,12.15
2023-02-17T19:49:57.367Z,12.13
2023-02-17T19:52:23.692Z,12.07
2023-02-17T19:54:50.423Z,12.04
2023-02-17T19:57:18.236Z,11.99
2023-02-17T19:59:46.312Z,11.94
2023-02-17T20:02:14.455Z,11.91
2023-02-17T20:04:41.210Z,11.88
2023-02-17T20:07:07.573Z,11.84
2023-02-17T20:09:33.946Z,11.82
2023-02-17T20:12:00.287Z,11.78
2023-02-17T20:14:26.895Z,11.76
2023-02-17T20:16:55.301Z,11.74
2023-02-17T20:19:22.160Z,11.74
2023-02-17T20:21:48.540Z,11.74
2023-02-17T20:24:15.172Z,11.71
2023-02-17T20:26:44.561Z,11.72
2023-02-17T20:29:12.892Z,11.71
2023-02-17T20:31:40.885Z,11.69
2023-02-17T20:34:17.537Z,11.67
2023-02-17T20:36:43.845Z,11.64
2023-02-17T20:39:10.205Z,11.62
2023-02-17T20:41:36.554Z,11.61
2023-02-17T20:44:04.436Z,11.59
2023-02-17T20:46:31.004Z,11.59
2023-02-17T20:48:57.409Z,11.58
2023-02-17T20:51:24.051Z,11.58
2023-02-17T20:53:51.193Z,11.58
2023-02-17T20:56:23.909Z,11.59
2023-02-17T20:58:51.943Z,11.60
2023-02-17T21:01:19.668Z,11.61
2023-02-17T21:03:47.052Z,11.61
2023-02-17T21:06:23.126Z,11.62
2023-02-17T21:08:58.517Z,11.65
2023-02-17T21:11:24.950Z,11.62
2023-02-17T21:13:52.466Z,11.63
2023-02-17T21:16:22.274Z,11.65
2023-02-17T21:18:49.240Z,11.65
2023-02-17T21:21:16.524Z,11.65
2023-02-17T21:23:43.344Z,11.67
2023-02-17T21:26:11.351Z,11.68
2023-02-17T21:28:38.348Z,11.69
2023-02-17T21:31:05.142Z,11.69
2023-02-17T21:33:31.944Z,11.69
2023-02-17T21:35:58.302Z,11.69
2023-02-17T21:38:24.693Z,11.70
2023-02-17T21:40:51.068Z,11.69
2023-02-17T21:43:37.647Z,11.70
2023-02-17T21:46:09.179Z,11.69
2023-02-17T21:48:35.655Z,11.68
2023-02-17T21:51:06.592Z,11.69
2023-02-17T21:53:33.044Z,11.68
2023-02-17T21:56:00.341Z,11.66
2023-02-17T21:58:27.378Z,11.66
2023-02-17T22:00:53.763Z,11.66
2023-02-17T22:03:20.161Z,11.65
2023-02-17T22:05:46.511Z,11.66
2023-02-17T22:08:12.867Z,11.67
2023-02-17T22:10:40.480Z,11.67
2023-02-17T22:13:07.723Z,11.68
2023-02-17T22:15:35.139Z,11.68
2023-02-17T22:18:01.945Z,11.69
2023-02-17T22:20:29.008Z,11.68
2023-02-17T22:22:55.601Z,11.68
2023-02-17T22:25:23.693Z,11.67
2023-02-17T22:27:50.541Z,11.67
2023-02-17T22:30:17.462Z,11.65
2023-02-17T22:32:43.841Z,11.65
2023-02-17T22:35:10.726Z,11.63
2023-02-17T22:37:37.511Z,11.62
2023-02-17T22:40:05.074Z,11.61
2023-02-17T22:42:31.457Z,11.61
2023-02-17T22:44:57.783Z,11.59
2023-02-17T22:47:24.120Z,11.56
2023-02-17T22:49:50.440Z,11.55
2023-02-17T22:52:16.755Z,11.52
2023-02-17T22:54:44.054Z,11.48
2023-02-17T22:57:10.416Z,11.45
2023-02-17T22:59:36.802Z,11.41
2023-02-17T23:02:03.300Z,11.38
2023-02-17T23:04:29.823Z,11.35
2023-02-17T23:06:56.506Z,11.32
2023-02-17T23:09:23.138Z,11.29
2023-02-17T23:11:55.381Z,11.26
2023-02-17T23:14:30.600Z,11.22
2023-02-17T23:17:02.291Z,11.17
2023-02-17T23:19:29.561Z,11.12
2023-02-17T23:21:58.510Z,11.07
2023-02-17T23:24:26.277Z,11.02
2023-02-17T23:26:54.315Z,10.97
2023-02-17T23:29:20.879Z,10.91
2023-02-17T23:31:47.373Z,10.86
2023-02-17T23:34:15.078Z,10.82
2023-02-17T23:36:43.161Z,10.78
2023-02-17T23:39:10.133Z,10.75
2023-02-17T23:41:37.717Z,10.71
2023-02-17T23:44:05.356Z,10.69
2023-02-17T23:46:31.842Z,10.67
2023-02-17T23:48:58.271Z,10.64
2023-02-17T23:51:25.050Z,10.62
2023-02-17T23:53:51.413Z,10.60
2023-02-17T23:56:25.513Z,10.62
2023-02-17T23:58:52.106Z,10.60
